sensor_id;sensor_type;location;lat;lon;timestamp;P1;durP1;ratioP1;P2;durP2;ratioP2
73747;SDS011;62056;52.130;5.428;2023-02-28T00:01:20;3.95;;;1.70;;
73747;SDS011;62056;52.130;5.428;2023-02-28T00:03:47;3.25;;;2.00;;
73747;SDS011;62056;52.130;5.428;2023-02-28T00:06:13;5.00;;;1.48;;
73747;SDS011;62056;52.130;5.428;2023-02-28T00:08:40;3.03;;;1.13;;
73747;SDS011;62056;52.130;5.428;2023-02-28T00:11:11;3.58;;;1.23;;
73747;SDS011;62056;52.130;5.428;2023-02-28T00:13:41;3.03;;;1.50;;
73747;SDS011;62056;52.130;5.428;2023-02-28T00:16:17;4.30;;;1.42;;
73747;SDS011;62056;52.130;5.428;2023-02-28T00:18:46;2.65;;;1.60;;
73747;SDS011;62056;52.130;5.428;2023-02-28T00:21:16;2.20;;;1.37;;
73747;SDS011;62056;52.130;5.428;2023-02-28T00:23:44;1.83;;;1.27;;
73747;SDS011;62056;52.130;5.428;2023-02-28T00:26:12;5.50;;;1.25;;
73747;SDS011;62056;52.130;5.428;2023-02-28T00:28:38;3.13;;;1.42;;
73747;SDS011;62056;52.130;5.428;2023-02-28T00:31:05;5.22;;;1.75;;
73747;SDS011;62056;52.130;5.428;2023-02-28T00:33:32;3.53;;;1.07;;
73747;SDS011;62056;52.130;5.428;2023-02-28T00:36:03;5.53;;;1.40;;
73747;SDS011;62056;52.130;5.428;2023-02-28T00:38:32;3.08;;;1.35;;
73747;SDS011;62056;52.130;5.428;2023-02-28T00:40:59;5.72;;;1.33;;
73747;SDS011;62056;52.130;5.428;2023-02-28T00:43:33;1.85;;;1.23;;
73747;SDS011;62056;52.130;5.428;2023-02-28T00:46:01;4.10;;;1.50;;
73747;SDS011;62056;52.130;5.428;2023-02-28T00:48:29;2.92;;;1.08;;
73747;SDS011;62056;52.130;5.428;2023-02-28T00:50:56;2.25;;;1.30;;
73747;SDS011;62056;52.130;5.428;2023-02-28T00:53:23;2.05;;;1.00;;
73747;SDS011;62056;52.130;5.428;2023-02-28T00:55:50;3.17;;;1.30;;
73747;SDS011;62056;52.130;5.428;2023-02-28T00:58:17;1.53;;;0.80;;
73747;SDS011;62056;52.130;5.428;2023-02-28T01:00:44;2.33;;;1.08;;
73747;SDS011;62056;52.130;5.428;2023-02-28T01:03:16;4.60;;;1.40;;
73747;SDS011;62056;52.130;5.428;2023-02-28T01:05:44;2.95;;;1.30;;
73747;SDS011;62056;52.130;5.428;2023-02-28T01:08:11;3.28;;;1.15;;
73747;SDS011;62056;52.130;5.428;2023-02-28T01:10:38;1.87;;;0.77;;
73747;SDS011;62056;52.130;5.428;2023-02-28T01:13:04;1.83;;;0.98;;
73747;SDS011;62056;52.130;5.428;2023-02-28T01:15:31;2.92;;;1.17;;
73747;SDS011;62056;52.130;5.428;2023-02-28T01:17:58;4.65;;;1.25;;
73747;SDS011;62056;52.130;5.428;2023-02-28T01:20:25;3.92;;;1.15;;
73747;SDS011;62056;52.130;5.428;2023-02-28T01:22:51;2.13;;;1.10;;
73747;SDS011;62056;52.130;5.428;2023-02-28T01:25:18;2.60;;;0.80;;
73747;SDS011;62056;52.130;5.428;2023-02-28T01:27:44;2.95;;;0.88;;
73747;SDS011;62056;52.130;5.428;2023-02-28T01:30:11;1.52;;;0.95;;
73747;SDS011;62056;52.130;5.428;2023-02-28T01:32:38;1.80;;;0.77;;
73747;SDS011;62056;52.130;5.428;2023-02-28T01:35:05;5.13;;;0.80;;
73747;SDS011;62056;52.130;5.428;2023-02-28T01:37:31;4.45;;;0.68;;
73747;SDS011;62056;52.130;5.428;2023-02-28T01:39:58;2.10;;;1.02;;
73747;SDS011;62056;52.130;5.428;2023-02-28T01:42:25;2.30;;;1.17;;
73747;SDS011;62056;52.130;5.428;2023-02-28T01:47:38;2.00;;;1.00;;
73747;SDS011;62056;52.130;5.428;2023-02-28T01:50:09;2.22;;;1.20;;
73747;SDS011;62056;52.130;5.428;2023-02-28T01:52:40;3.90;;;1.33;;
73747;SDS011;62056;52.130;5.428;2023-02-28T01:55:08;3.78;;;0.95;;
73747;SDS011;62056;52.130;5.428;2023-02-28T01:57:39;2.30;;;1.10;;
73747;SDS011;62056;52.130;5.428;2023-02-28T02:00:13;1.80;;;1.37;;
73747;SDS011;62056;52.130;5.428;2023-02-28T02:02:43;2.20;;;0.70;;
73747;SDS011;62056;52.130;5.428;2023-02-28T02:05:20;1.85;;;0.82;;
73747;SDS011;62056;52.130;5.428;2023-02-28T02:07:50;1.48;;;0.73;;
73747;SDS011;62056;52.130;5.428;2023-02-28T02:10:35;2.67;;;0.70;;
73747;SDS011;62056;52.130;5.428;2023-02-28T02:18:54;5.97;;;1.27;;
73747;SDS011;62056;52.130;5.428;2023-02-28T02:24:35;2.45;;;1.10;;
73747;SDS011;62056;52.130;5.428;2023-02-28T02:46:34;2.58;;;1.35;;
73747;SDS011;62056;52.130;5.428;2023-02-28T02:49:07;4.13;;;1.38;;
73747;SDS011;62056;52.130;5.428;2023-02-28T02:51:37;3.55;;;1.55;;
73747;SDS011;62056;52.130;5.428;2023-02-28T02:54:09;1.70;;;0.90;;
73747;SDS011;62056;52.130;5.428;2023-02-28T02:56:56;5.30;;;1.42;;
73747;SDS011;62056;52.130;5.428;2023-02-28T02:59:25;5.18;;;0.95;;
73747;SDS011;62056;52.130;5.428;2023-02-28T03:01:55;2.00;;;1.10;;
73747;SDS011;62056;52.130;5.428;2023-02-28T03:04:26;1.55;;;1.10;;
73747;SDS011;62056;52.130;5.428;2023-02-28T03:06:57;2.77;;;1.40;;
73747;SDS011;62056;52.130;5.428;2023-02-28T03:09:24;2.42;;;1.20;;
73747;SDS011;62056;52.130;5.428;2023-02-28T03:11:52;2.55;;;1.08;;
73747;SDS011;62056;52.130;5.428;2023-02-28T03:22:52;4.18;;;1.10;;
73747;SDS011;62056;52.130;5.428;2023-02-28T03:25:33;3.78;;;1.20;;
73747;SDS011;62056;52.130;5.428;2023-02-28T03:28:22;1.98;;;1.75;;
73747;SDS011;62056;52.130;5.428;2023-02-28T03:31:00;4.50;;;1.70;;
73747;SDS011;62056;52.130;5.428;2023-02-28T03:33:41;4.10;;;1.43;;
73747;SDS011;62056;52.130;5.428;2023-02-28T03:36:12;2.85;;;1.52;;
73747;SDS011;62056;52.130;5.428;2023-02-28T03:38:45;4.28;;;1.75;;
73747;SDS011;62056;52.130;5.428;2023-02-28T03:41:21;3.90;;;1.60;;
73747;SDS011;62056;52.130;5.428;2023-02-28T03:43:51;5.78;;;1.52;;
73747;SDS011;62056;52.130;5.428;2023-02-28T03:46:22;2.57;;;0.80;;
73747;SDS011;62056;52.130;5.428;2023-02-28T03:48:53;5.00;;;1.60;;
73747;SDS011;62056;52.130;5.428;2023-02-28T03:51:27;6.95;;;1.67;;
73747;SDS011;62056;52.130;5.428;2023-02-28T03:53:57;4.70;;;1.60;;
73747;SDS011;62056;52.130;5.428;2023-02-28T03:56:34;3.55;;;1.10;;
73747;SDS011;62056;52.130;5.428;2023-02-28T03:59:10;2.37;;;1.13;;
73747;SDS011;62056;52.130;5.428;2023-02-28T04:01:45;3.22;;;1.67;;
73747;SDS011;62056;52.130;5.428;2023-02-28T04:04:13;3.65;;;1.02;;
73747;SDS011;62056;52.130;5.428;2023-02-28T04:06:41;3.15;;;1.05;;
73747;SDS011;62056;52.130;5.428;2023-02-28T04:09:09;2.05;;;1.30;;
73747;SDS011;62056;52.130;5.428;2023-02-28T04:11:37;2.63;;;1.20;;
73747;SDS011;62056;52.130;5.428;2023-02-28T04:14:09;2.17;;;0.93;;
73747;SDS011;62056;52.130;5.428;2023-02-28T04:16:38;3.50;;;1.70;;
73747;SDS011;62056;52.130;5.428;2023-02-28T04:19:07;2.40;;;1.65;;
73747;SDS011;62056;52.130;5.428;2023-02-28T04:21:36;2.47;;;1.23;;
73747;SDS011;62056;52.130;5.428;2023-02-28T04:24:03;2.40;;;1.20;;
73747;SDS011;62056;52.130;5.428;2023-02-28T04:26:30;2.28;;;0.90;;
73747;SDS011;62056;52.130;5.428;2023-02-28T04:29:02;2.47;;;1.10;;
73747;SDS011;62056;52.130;5.428;2023-02-28T04:31:31;1.50;;;0.90;;
73747;SDS011;62056;52.130;5.428;2023-02-28T04:33:58;1.80;;;0.90;;
73747;SDS011;62056;52.130;5.428;2023-02-28T04:36:24;1.73;;;0.80;;
73747;SDS011;62056;52.130;5.428;2023-02-28T04:38:51;1.27;;;0.80;;
73747;SDS011;62056;52.130;5.428;2023-02-28T04:41:18;2.88;;;1.00;;
73747;SDS011;62056;52.130;5.428;2023-02-28T04:43:45;1.92;;;1.05;;
73747;SDS011;62056;52.130;5.428;2023-02-28T04:46:12;2.20;;;0.90;;
73747;SDS011;62056;52.130;5.428;2023-02-28T04:48:39;2.70;;;1.43;;
73747;SDS011;62056;52.130;5.428;2023-02-28T04:53:37;2.90;;;0.80;;
73747;SDS011;62056;52.130;5.428;2023-02-28T04:56:06;5.78;;;1.33;;
73747;SDS011;62056;52.130;5.428;2023-02-28T04:58:34;1.95;;;1.13;;
73747;SDS011;62056;52.130;5.428;2023-02-28T05:01:02;4.80;;;1.23;;
73747;SDS011;62056;52.130;5.428;2023-02-28T05:03:42;3.88;;;1.05;;
73747;SDS011;62056;52.130;5.428;2023-02-28T05:06:09;1.95;;;1.00;;
73747;SDS011;62056;52.130;5.428;2023-02-28T05:08:37;2.90;;;1.00;;
73747;SDS011;62056;52.130;5.428;2023-02-28T05:11:05;2.55;;;0.85;;
73747;SDS011;62056;52.130;5.428;2023-02-28T05:13:34;1.70;;;1.00;;
73747;SDS011;62056;52.130;5.428;2023-02-28T05:16:01;2.15;;;0.90;;
73747;SDS011;62056;52.130;5.428;2023-02-28T05:18:28;1.90;;;1.02;;
73747;SDS011;62056;52.130;5.428;2023-02-28T05:20:55;4.38;;;1.75;;
73747;SDS011;62056;52.130;5.428;2023-02-28T05:23:22;3.60;;;1.40;;
73747;SDS011;62056;52.130;5.428;2023-02-28T05:25:49;1.50;;;0.70;;
73747;SDS011;62056;52.130;5.428;2023-02-28T05:28:18;2.05;;;1.10;;
73747;SDS011;62056;52.130;5.428;2023-02-28T05:30:45;2.97;;;0.98;;
73747;SDS011;62056;52.130;5.428;2023-02-28T05:33:12;2.03;;;0.90;;
73747;SDS011;62056;52.130;5.428;2023-02-28T05:35:39;2.67;;;0.88;;
73747;SDS011;62056;52.130;5.428;2023-02-28T05:38:07;1.43;;;0.87;;
73747;SDS011;62056;52.130;5.428;2023-02-28T05:40:33;1.48;;;0.95;;
73747;SDS011;62056;52.130;5.428;2023-02-28T05:43:00;2.00;;;1.00;;
73747;SDS011;62056;52.130;5.428;2023-02-28T05:45:27;2.35;;;0.95;;
73747;SDS011;62056;52.130;5.428;2023-02-28T05:47:54;1.67;;;1.00;;
73747;SDS011;62056;52.130;5.428;2023-02-28T05:50:21;1.80;;;1.20;;
73747;SDS011;62056;52.130;5.428;2023-02-28T05:52:49;4.10;;;0.75;;
73747;SDS011;62056;52.130;5.428;2023-02-28T05:55:17;4.15;;;1.10;;
73747;SDS011;62056;52.130;5.428;2023-02-28T05:57:44;1.33;;;0.98;;
73747;SDS011;62056;52.130;5.428;2023-02-28T06:00:11;3.17;;;0.90;;
73747;SDS011;62056;52.130;5.428;2023-02-28T06:02:38;3.10;;;0.90;;
73747;SDS011;62056;52.130;5.428;2023-02-28T06:05:12;2.95;;;1.17;;
73747;SDS011;62056;52.130;5.428;2023-02-28T06:07:41;2.33;;;1.20;;
73747;SDS011;62056;52.130;5.428;2023-02-28T06:10:08;1.58;;;0.80;;
73747;SDS011;62056;52.130;5.428;2023-02-28T06:12:36;2.05;;;1.40;;
73747;SDS011;62056;52.130;5.428;2023-02-28T06:15:03;1.87;;;1.20;;
73747;SDS011;62056;52.130;5.428;2023-02-28T06:17:30;3.05;;;1.17;;
73747;SDS011;62056;52.130;5.428;2023-02-28T06:19:57;1.83;;;1.52;;
73747;SDS011;62056;52.130;5.428;2023-02-28T06:22:23;4.00;;;2.15;;
73747;SDS011;62056;52.130;5.428;2023-02-28T06:24:50;2.90;;;1.52;;
73747;SDS011;62056;52.130;5.428;2023-02-28T06:27:17;3.43;;;2.33;;
73747;SDS011;62056;52.130;5.428;2023-02-28T06:29:43;3.70;;;2.95;;
73747;SDS011;62056;52.130;5.428;2023-02-28T06:32:10;3.45;;;2.15;;
73747;SDS011;62056;52.130;5.428;2023-02-28T06:34:36;2.60;;;1.67;;
73747;SDS011;62056;52.130;5.428;2023-02-28T06:37:03;4.05;;;1.58;;
73747;SDS011;62056;52.130;5.428;2023-02-28T06:39:30;2.13;;;1.50;;
73747;SDS011;62056;52.130;5.428;2023-02-28T06:41:57;2.08;;;1.13;;
73747;SDS011;62056;52.130;5.428;2023-02-28T06:44:24;2.88;;;1.38;;
73747;SDS011;62056;52.130;5.428;2023-02-28T06:46:50;3.58;;;1.52;;
73747;SDS011;62056;52.130;5.428;2023-02-28T06:49:17;2.53;;;1.50;;
73747;SDS011;62056;52.130;5.428;2023-02-28T06:51:44;2.80;;;1.17;;
73747;SDS011;62056;52.130;5.428;2023-02-28T06:54:11;5.15;;;2.00;;
73747;SDS011;62056;52.130;5.428;2023-02-28T06:56:38;2.55;;;1.80;;
73747;SDS011;62056;52.130;5.428;2023-02-28T06:59:05;3.05;;;1.55;;
73747;SDS011;62056;52.130;5.428;2023-02-28T07:01:32;2.45;;;1.80;;
73747;SDS011;62056;52.130;5.428;2023-02-28T07:03:59;1.83;;;1.20;;
73747;SDS011;62056;52.130;5.428;2023-02-28T07:06:26;4.50;;;2.15;;
73747;SDS011;62056;52.130;5.428;2023-02-28T07:08:54;4.35;;;2.20;;
73747;SDS011;62056;52.130;5.428;2023-02-28T07:11:26;6.20;;;1.77;;
73747;SDS011;62056;52.130;5.428;2023-02-28T07:13:54;2.42;;;1.38;;
73747;SDS011;62056;52.130;5.428;2023-02-28T07:16:22;2.60;;;1.57;;
73747;SDS011;62056;52.130;5.428;2023-02-28T07:18:52;2.70;;;1.77;;
73747;SDS011;62056;52.130;5.428;2023-02-28T07:21:19;2.20;;;1.42;;
73747;SDS011;62056;52.130;5.428;2023-02-28T07:23:46;4.60;;;1.60;;
73747;SDS011;62056;52.130;5.428;2023-02-28T07:26:13;2.33;;;1.42;;
73747;SDS011;62056;52.130;5.428;2023-02-28T07:28:43;3.60;;;1.20;;
73747;SDS011;62056;52.130;5.428;2023-02-28T07:31:11;2.88;;;1.48;;
73747;SDS011;62056;52.130;5.428;2023-02-28T07:33:40;2.72;;;1.50;;
73747;SDS011;62056;52.130;5.428;2023-02-28T07:36:08;9.77;;;1.35;;
73747;SDS011;62056;52.130;5.428;2023-02-28T07:38:42;1.30;;;0.80;;
73747;SDS011;62056;52.130;5.428;2023-02-28T07:41:13;2.17;;;1.00;;
73747;SDS011;62056;52.130;5.428;2023-02-28T07:43:41;2.92;;;1.45;;
73747;SDS011;62056;52.130;5.428;2023-02-28T07:46:08;2.95;;;1.73;;
73747;SDS011;62056;52.130;5.428;2023-02-28T07:48:38;3.33;;;2.03;;
73747;SDS011;62056;52.130;5.428;2023-02-28T07:51:04;3.42;;;1.55;;
73747;SDS011;62056;52.130;5.428;2023-02-28T07:53:31;4.00;;;1.50;;
73747;SDS011;62056;52.130;5.428;2023-02-28T07:55:58;1.55;;;1.20;;
73747;SDS011;62056;52.130;5.428;2023-02-28T07:58:27;2.85;;;1.52;;
73747;SDS011;62056;52.130;5.428;2023-02-28T08:00:56;5.72;;;1.65;;
73747;SDS011;62056;52.130;5.428;2023-02-28T08:03:23;4.97;;;1.83;;
73747;SDS011;62056;52.130;5.428;2023-02-28T08:05:51;2.10;;;1.70;;
73747;SDS011;62056;52.130;5.428;2023-02-28T08:08:18;2.42;;;1.52;;
73747;SDS011;62056;52.130;5.428;2023-02-28T08:10:45;1.52;;;0.82;;
73747;SDS011;62056;52.130;5.428;2023-02-28T08:13:12;4.53;;;1.85;;
73747;SDS011;62056;52.130;5.428;2023-02-28T08:15:40;6.47;;;2.15;;
73747;SDS011;62056;52.130;5.428;2023-02-28T08:18:07;1.70;;;1.20;;
73747;SDS011;62056;52.130;5.428;2023-02-28T08:20:37;4.25;;;1.50;;
73747;SDS011;62056;52.130;5.428;2023-02-28T08:23:03;2.53;;;1.70;;
73747;SDS011;62056;52.130;5.428;2023-02-28T08:25:30;4.20;;;1.50;;
73747;SDS011;62056;52.130;5.428;2023-02-28T08:27:57;2.80;;;1.95;;
73747;SDS011;62056;52.130;5.428;2023-02-28T08:30:24;6.10;;;1.40;;
73747;SDS011;62056;52.130;5.428;2023-02-28T08:32:51;4.93;;;1.70;;
73747;SDS011;62056;52.130;5.428;2023-02-28T08:35:17;1.98;;;1.15;;
73747;SDS011;62056;52.130;5.428;2023-02-28T08:37:44;2.50;;;1.30;;
73747;SDS011;62056;52.130;5.428;2023-02-28T08:40:11;4.63;;;1.73;;
73747;SDS011;62056;52.130;5.428;2023-02-28T08:42:44;2.17;;;1.50;;
73747;SDS011;62056;52.130;5.428;2023-02-28T08:45:12;5.82;;;1.20;;
73747;SDS011;62056;52.130;5.428;2023-02-28T08:47:40;2.58;;;1.60;;
73747;SDS011;62056;52.130;5.428;2023-02-28T08:50:07;2.42;;;1.50;;
73747;SDS011;62056;52.130;5.428;2023-02-28T08:52:45;3.20;;;1.42;;
73747;SDS011;62056;52.130;5.428;2023-02-28T08:55:14;2.13;;;1.20;;
73747;SDS011;62056;52.130;5.428;2023-02-28T08:57:40;2.03;;;1.25;;
73747;SDS011;62056;52.130;5.428;2023-02-28T09:00:07;1.98;;;1.25;;
73747;SDS011;62056;52.130;5.428;2023-02-28T09:02:34;2.95;;;1.30;;
73747;SDS011;62056;52.130;5.428;2023-02-28T09:05:01;2.15;;;1.33;;
73747;SDS011;62056;52.130;5.428;2023-02-28T09:07:27;4.43;;;1.00;;
73747;SDS011;62056;52.130;5.428;2023-02-28T09:09:54;3.53;;;1.30;;
73747;SDS011;62056;52.130;5.428;2023-02-28T09:12:22;3.33;;;0.93;;
73747;SDS011;62056;52.130;5.428;2023-02-28T09:14:49;3.90;;;0.98;;
73747;SDS011;62056;52.130;5.428;2023-02-28T09:17:23;1.98;;;0.70;;
73747;SDS011;62056;52.130;5.428;2023-02-28T09:20:13;3.13;;;1.00;;
73747;SDS011;62056;52.130;5.428;2023-02-28T09:22:40;1.08;;;0.55;;
73747;SDS011;62056;52.130;5.428;2023-02-28T09:25:06;2.03;;;0.60;;
73747;SDS011;62056;52.130;5.428;2023-02-28T09:27:33;1.38;;;0.70;;
73747;SDS011;62056;52.130;5.428;2023-02-28T09:30:00;1.63;;;0.80;;
73747;SDS011;62056;52.130;5.428;2023-02-28T09:32:26;1.30;;;0.50;;
73747;SDS011;62056;52.130;5.428;2023-02-28T09:35:00;1.60;;;0.50;;
73747;SDS011;62056;52.130;5.428;2023-02-28T09:37:26;0.90;;;0.32;;
73747;SDS011;62056;52.130;5.428;2023-02-28T09:39:55;1.35;;;0.50;;
73747;SDS011;62056;52.130;5.428;2023-02-28T09:42:24;1.00;;;0.35;;
73747;SDS011;62056;52.130;5.428;2023-02-28T09:45:00;1.07;;;0.33;;
73747;SDS011;62056;52.130;5.428;2023-02-28T09:50:11;1.05;;;0.55;;
73747;SDS011;62056;52.130;5.428;2023-02-28T09:52:43;1.10;;;0.32;;
73747;SDS011;62056;52.130;5.428;2023-02-28T09:58:16;1.00;;;0.40;;
73747;SDS011;62056;52.130;5.428;2023-02-28T10:00:51;2.85;;;0.50;;
73747;SDS011;62056;52.130;5.428;2023-02-28T10:03:39;3.03;;;0.60;;
73747;SDS011;62056;52.130;5.428;2023-02-28T10:08:50;0.98;;;0.52;;
73747;SDS011;62056;52.130;5.428;2023-02-28T10:11:25;0.90;;;0.70;;
73747;SDS011;62056;52.130;5.428;2023-02-28T10:16:48;1.33;;;0.50;;
73747;SDS011;62056;52.130;5.428;2023-02-28T10:21:56;4.10;;;0.50;;
73747;SDS011;62056;52.130;5.428;2023-02-28T10:26:59;0.85;;;0.50;;
73747;SDS011;62056;52.130;5.428;2023-02-28T10:29:32;1.88;;;0.57;;
73747;SDS011;62056;52.130;5.428;2023-02-28T10:32:00;1.00;;;0.52;;
73747;SDS011;62056;52.130;5.428;2023-02-28T10:34:28;1.73;;;0.60;;
73747;SDS011;62056;52.130;5.428;2023-02-28T10:36:55;0.90;;;0.57;;
73747;SDS011;62056;52.130;5.428;2023-02-28T10:39:35;1.45;;;0.55;;
73747;SDS011;62056;52.130;5.428;2023-02-28T10:42:22;0.80;;;0.55;;
73747;SDS011;62056;52.130;5.428;2023-02-28T10:45:04;1.25;;;0.70;;
73747;SDS011;62056;52.130;5.428;2023-02-28T10:47:37;1.05;;;0.70;;
73747;SDS011;62056;52.130;5.428;2023-02-28T10:55:36;1.02;;;0.40;;
73747;SDS011;62056;52.130;5.428;2023-02-28T10:58:03;1.00;;;0.60;;
73747;SDS011;62056;52.130;5.428;2023-02-28T11:00:49;0.88;;;0.43;;
73747;SDS011;62056;52.130;5.428;2023-02-28T11:03:28;1.80;;;0.60;;
73747;SDS011;62056;52.130;5.428;2023-02-28T11:05:57;4.43;;;0.40;;
73747;SDS011;62056;52.130;5.428;2023-02-28T11:08:24;1.42;;;0.82;;
73747;SDS011;62056;52.130;5.428;2023-02-28T11:10:55;0.88;;;0.35;;
73747;SDS011;62056;52.130;5.428;2023-02-28T11:13:26;1.30;;;0.77;;
73747;SDS011;62056;52.130;5.428;2023-02-28T11:15:59;1.07;;;0.40;;
73747;SDS011;62056;52.130;5.428;2023-02-28T11:21:07;1.02;;;0.47;;
73747;SDS011;62056;52.130;5.428;2023-02-28T11:23:42;0.98;;;0.40;;
73747;SDS011;62056;52.130;5.428;2023-02-28T11:26:10;0.95;;;0.50;;
73747;SDS011;62056;52.130;5.428;2023-02-28T11:28:40;1.60;;;0.60;;
73747;SDS011;62056;52.130;5.428;2023-02-28T11:33:45;1.20;;;0.40;;
73747;SDS011;62056;52.130;5.428;2023-02-28T11:36:22;1.13;;;0.50;;
73747;SDS011;62056;52.130;5.428;2023-02-28T11:39:04;1.27;;;0.65;;
73747;SDS011;62056;52.130;5.428;2023-02-28T11:41:44;1.50;;;0.57;;
73747;SDS011;62056;52.130;5.428;2023-02-28T11:52:51;1.30;;;0.55;;
73747;SDS011;62056;52.130;5.428;2023-02-28T11:55:35;1.20;;;0.60;;
73747;SDS011;62056;52.130;5.428;2023-02-28T12:00:54;0.90;;;0.47;;
73747;SDS011;62056;52.130;5.428;2023-02-28T12:09:10;2.90;;;0.50;;
73747;SDS011;62056;52.130;5.428;2023-02-28T12:20:13;1.23;;;0.45;;
73747;SDS011;62056;52.130;5.428;2023-02-28T12:26:10;1.15;;;0.50;;
73747;SDS011;62056;52.130;5.428;2023-02-28T12:28:49;0.80;;;0.50;;
73747;SDS011;62056;52.130;5.428;2023-02-28T12:31:24;1.10;;;0.77;;
73747;SDS011;62056;52.130;5.428;2023-02-28T12:33:59;1.38;;;0.70;;
73747;SDS011;62056;52.130;5.428;2023-02-28T12:36:31;2.40;;;0.97;;
73747;SDS011;62056;52.130;5.428;2023-02-28T12:41:47;1.30;;;0.50;;
73747;SDS011;62056;52.130;5.428;2023-02-28T12:44:26;2.33;;;0.70;;
73747;SDS011;62056;52.130;5.428;2023-02-28T12:47:02;1.33;;;0.50;;
73747;SDS011;62056;52.130;5.428;2023-02-28T12:49:37;1.50;;;0.70;;
73747;SDS011;62056;52.130;5.428;2023-02-28T12:52:09;1.10;;;0.40;;
73747;SDS011;62056;52.130;5.428;2023-02-28T12:54:42;1.88;;;0.45;;
73747;SDS011;62056;52.130;5.428;2023-02-28T12:57:18;1.65;;;0.60;;
73747;SDS011;62056;52.130;5.428;2023-02-28T13:02:55;1.80;;;0.63;;
73747;SDS011;62056;52.130;5.428;2023-02-28T13:05:50;0.90;;;0.50;;
73747;SDS011;62056;52.130;5.428;2023-02-28T13:10:53;1.55;;;0.70;;
73747;SDS011;62056;52.130;5.428;2023-02-28T13:13:21;1.30;;;0.52;;
73747;SDS011;62056;52.130;5.428;2023-02-28T13:18:34;1.30;;;0.35;;
73747;SDS011;62056;52.130;5.428;2023-02-28T13:21:06;1.48;;;0.50;;
73747;SDS011;62056;52.130;5.428;2023-02-28T13:26:05;1.77;;;1.00;;
73747;SDS011;62056;52.130;5.428;2023-02-28T13:31:17;1.38;;;0.90;;
73747;SDS011;62056;52.130;5.428;2023-02-28T13:38:43;1.38;;;0.70;;
73747;SDS011;62056;52.130;5.428;2023-02-28T13:46:29;1.67;;;0.77;;
73747;SDS011;62056;52.130;5.428;2023-02-28T13:49:14;0.80;;;0.55;;
73747;SDS011;62056;52.130;5.428;2023-02-28T14:00:35;1.40;;;1.00;;
73747;SDS011;62056;52.130;5.428;2023-02-28T14:03:35;1.30;;;0.60;;
73747;SDS011;62056;52.130;5.428;2023-02-28T14:06:26;2.60;;;0.90;;
73747;SDS011;62056;52.130;5.428;2023-02-28T14:11:43;1.65;;;0.60;;
73747;SDS011;62056;52.130;5.428;2023-02-28T14:17:03;1.38;;;0.68;;
73747;SDS011;62056;52.130;5.428;2023-02-28T14:19:38;2.13;;;0.80;;
73747;SDS011;62056;52.130;5.428;2023-02-28T14:27:27;1.75;;;0.60;;
73747;SDS011;62056;52.130;5.428;2023-02-28T14:30:03;1.52;;;1.15;;
73747;SDS011;62056;52.130;5.428;2023-02-28T14:37:53;1.60;;;1.00;;
73747;SDS011;62056;52.130;5.428;2023-02-28T14:40:23;3.47;;;1.17;;
73747;SDS011;62056;52.130;5.428;2023-02-28T14:43:01;3.40;;;0.68;;
73747;SDS011;62056;52.130;5.428;2023-02-28T14:45:31;1.35;;;0.70;;
73747;SDS011;62056;52.130;5.428;2023-02-28T14:48:00;3.20;;;0.60;;
73747;SDS011;62056;52.130;5.428;2023-02-28T14:50:35;1.00;;;0.70;;
73747;SDS011;62056;52.130;5.428;2023-02-28T14:53:04;2.10;;;1.05;;
73747;SDS011;62056;52.130;5.428;2023-02-28T14:55:44;1.90;;;0.98;;
73747;SDS011;62056;52.130;5.428;2023-02-28T14:58:19;1.65;;;1.00;;
73747;SDS011;62056;52.130;5.428;2023-02-28T15:00:51;1.97;;;0.80;;
73747;SDS011;62056;52.130;5.428;2023-02-28T15:03:21;4.32;;;1.08;;
73747;SDS011;62056;52.130;5.428;2023-02-28T15:06:01;0.75;;;0.60;;
73747;SDS011;62056;52.130;5.428;2023-02-28T15:08:31;1.42;;;0.77;;
73747;SDS011;62056;52.130;5.428;2023-02-28T15:11:08;5.72;;;0.98;;
73747;SDS011;62056;52.130;5.428;2023-02-28T15:13:46;3.33;;;0.80;;
73747;SDS011;62056;52.130;5.428;2023-02-28T15:18:52;1.10;;;0.70;;
73747;SDS011;62056;52.130;5.428;2023-02-28T15:21:25;0.70;;;0.50;;
73747;SDS011;62056;52.130;5.428;2023-02-28T15:24:05;3.10;;;0.65;;
73747;SDS011;62056;52.130;5.428;2023-02-28T15:26:39;2.50;;;1.07;;
73747;SDS011;62056;52.130;5.428;2023-02-28T15:29:11;1.77;;;0.60;;
73747;SDS011;62056;52.130;5.428;2023-02-28T15:31:47;1.05;;;0.60;;
73747;SDS011;62056;52.130;5.428;2023-02-28T15:39:58;0.83;;;0.63;;
73747;SDS011;62056;52.130;5.428;2023-02-28T15:42:33;1.23;;;0.60;;
73747;SDS011;62056;52.130;5.428;2023-02-28T15:45:00;1.33;;;0.73;;
73747;SDS011;62056;52.130;5.428;2023-02-28T15:47:27;1.30;;;0.65;;
73747;SDS011;62056;52.130;5.428;2023-02-28T15:49:57;1.08;;;0.57;;
73747;SDS011;62056;52.130;5.428;2023-02-28T15:52:28;1.63;;;0.67;;
73747;SDS011;62056;52.130;5.428;2023-02-28T15:55:11;1.65;;;0.50;;
73747;SDS011;62056;52.130;5.428;2023-02-28T15:57:44;0.82;;;0.32;;
73747;SDS011;62056;52.130;5.428;2023-02-28T16:00:13;1.42;;;0.50;;
73747;SDS011;62056;52.130;5.428;2023-02-28T16:02:42;0.77;;;0.50;;
73747;SDS011;62056;52.130;5.428;2023-02-28T16:07:37;1.30;;;0.63;;
73747;SDS011;62056;52.130;5.428;2023-02-28T16:10:06;1.60;;;0.60;;
73747;SDS011;62056;52.130;5.428;2023-02-28T16:12:35;1.23;;;0.52;;
73747;SDS011;62056;52.130;5.428;2023-02-28T16:15:06;1.33;;;0.60;;
73747;SDS011;62056;52.130;5.428;2023-02-28T16:17:37;1.00;;;0.40;;
73747;SDS011;62056;52.130;5.428;2023-02-28T16:20:11;1.20;;;0.52;;
73747;SDS011;62056;52.130;5.428;2023-02-28T16:22:56;2.85;;;0.77;;
73747;SDS011;62056;52.130;5.428;2023-02-28T16:25:37;2.15;;;1.00;;
73747;SDS011;62056;52.130;5.428;2023-02-28T16:28:24;1.60;;;0.88;;
73747;SDS011;62056;52.130;5.428;2023-02-28T16:30:57;1.07;;;0.50;;
73747;SDS011;62056;52.130;5.428;2023-02-28T16:33:26;1.65;;;0.90;;
73747;SDS011;62056;52.130;5.428;2023-02-28T16:35:52;2.33;;;0.70;;
73747;SDS011;62056;52.130;5.428;2023-02-28T16:38:19;2.13;;;0.80;;
73747;SDS011;62056;52.130;5.428;2023-02-28T16:40:46;1.27;;;0.70;;
73747;SDS011;62056;52.130;5.428;2023-02-28T16:43:15;1.23;;;0.80;;
73747;SDS011;62056;52.130;5.428;2023-02-28T16:45:45;1.50;;;0.95;;
73747;SDS011;62056;52.130;5.428;2023-02-28T16:48:14;3.50;;;0.80;;
73747;SDS011;62056;52.130;5.428;2023-02-28T16:50:42;1.27;;;0.88;;
73747;SDS011;62056;52.130;5.428;2023-02-28T16:53:14;1.75;;;0.70;;
73747;SDS011;62056;52.130;5.428;2023-02-28T16:55:41;1.53;;;0.90;;
73747;SDS011;62056;52.130;5.428;2023-02-28T16:58:11;1.73;;;0.75;;
73747;SDS011;62056;52.130;5.428;2023-02-28T17:00:41;1.80;;;0.85;;
73747;SDS011;62056;52.130;5.428;2023-02-28T17:03:22;1.80;;;1.00;;
73747;SDS011;62056;52.130;5.428;2023-02-28T17:05:58;2.08;;;0.90;;
73747;SDS011;62056;52.130;5.428;2023-02-28T17:08:26;1.77;;;0.60;;
73747;SDS011;62056;52.130;5.428;2023-02-28T17:10:55;1.65;;;0.80;;
73747;SDS011;62056;52.130;5.428;2023-02-28T17:13:21;1.95;;;1.30;;
73747;SDS011;62056;52.130;5.428;2023-02-28T17:15:48;5.20;;;1.25;;
73747;SDS011;62056;52.130;5.428;2023-02-28T17:18:16;2.28;;;1.25;;
73747;SDS011;62056;52.130;5.428;2023-02-28T17:20:45;2.17;;;1.40;;
73747;SDS011;62056;52.130;5.428;2023-02-28T17:23:12;4.22;;;1.27;;
73747;SDS011;62056;52.130;5.428;2023-02-28T17:25:39;4.22;;;1.67;;
73747;SDS011;62056;52.130;5.428;2023-02-28T17:28:05;1.92;;;1.17;;
73747;SDS011;62056;52.130;5.428;2023-02-28T17:30:33;2.20;;;1.60;;
73747;SDS011;62056;52.130;5.428;2023-02-28T17:33:00;2.17;;;1.30;;
73747;SDS011;62056;52.130;5.428;2023-02-28T17:35:27;4.88;;;1.30;;
73747;SDS011;62056;52.130;5.428;2023-02-28T17:37:54;3.25;;;1.50;;
73747;SDS011;62056;52.130;5.428;2023-02-28T17:40:22;2.38;;;1.55;;
73747;SDS011;62056;52.130;5.428;2023-02-28T17:42:49;2.40;;;1.50;;
73747;SDS011;62056;52.130;5.428;2023-02-28T17:45:18;3.23;;;1.30;;
73747;SDS011;62056;52.130;5.428;2023-02-28T17:47:46;3.25;;;1.60;;